sensor_id;sensor_type;location;lat;lon;timestamp;pressure;altitude;pressure_sealevel;temperature;humidity
28004;BME280;15330;51.234;6.754;2022-07-01T00:01:36;101081.59;;;16.39;76.01
28004;BME280;15330;51.234;6.754;2022-07-01T00:04:02;101065.69;;;16.51;75.56
28004;BME280;15330;51.234;6.754;2022-07-01T00:06:27;101058.09;;;16.12;75.72
28004;BME280;15330;51.234;6.754;2022-07-01T00:08:52;101064.31;;;16.12;76.10
28004;BME280;15330;51.234;6.754;2022-07-01T00:11:18;101065.78;;;16.36;75.23
28004;BME280;15330;51.234;6.754;2022-07-01T00:13:43;101063.28;;;16.13;76.03
28004;BME280;15330;51.234;6.754;2022-07-01T00:16:08;101073.00;;;16.08;75.84
28004;BME280;15330;51.234;6.754;2022-07-01T00:18:34;101073.09;;;16.00;75.88
28004;BME280;15330;51.234;6.754;2022-07-01T00:20:59;101080.13;;;16.37;75.67
28004;BME280;15330;51.234;6.754;2022-07-01T00:23:28;101069.97;;;15.75;76.07
28004;BME280;15330;51.234;6.754;2022-07-01T00:25:53;101074.34;;;15.97;76.68
28004;BME280;15330;51.234;6.754;2022-07-01T00:28:19;101080.03;;;16.30;75.87
28004;BME280;15330;51.234;6.754;2022-07-01T00:30:44;101075.25;;;16.04;75.95
28004;BME280;15330;51.234;6.754;2022-07-01T00:33:10;101081.78;;;15.95;76.25
28004;BME280;15330;51.234;6.754;2022-07-01T00:35:36;101082.50;;;16.04;76.24
28004;BME280;15330;51.234;6.754;2022-07-01T00:38:01;101087.06;;;16.03;76.42
28004;BME280;15330;51.234;6.754;2022-07-01T00:40:26;101085.25;;;15.89;76.53
28004;BME280;15330;51.234;6.754;2022-07-01T00:42:52;101090.66;;;16.32;75.61
28004;BME280;15330;51.234;6.754;2022-07-01T00:45:19;101089.56;;;15.69;77.28
28004;BME280;15330;51.234;6.754;2022-07-01T00:47:44;101091.09;;;15.93;76.91
28004;BME280;15330;51.234;6.754;2022-07-01T00:50:13;101092.91;;;15.86;77.07
28004;BME280;15330;51.234;6.754;2022-07-01T00:52:40;101104.94;;;15.54;76.79
28004;BME280;15330;51.234;6.754;2022-07-01T00:55:08;101104.25;;;15.81;76.49
28004;BME280;15330;51.234;6.754;2022-07-01T00:57:36;101099.00;;;15.94;76.29
28004;BME280;15330;51.234;6.754;2022-07-01T01:00:06;101100.03;;;15.93;76.21
28004;BME280;15330;51.234;6.754;2022-07-01T01:02:33;101101.66;;;16.09;76.03
28004;BME280;15330;51.234;6.754;2022-07-01T01:04:58;101100.59;;;15.89;76.09
28004;BME280;15330;51.234;6.754;2022-07-01T01:07:24;101103.78;;;16.13;75.25
28004;BME280;15330;51.234;6.754;2022-07-01T01:09:50;101105.56;;;15.85;75.81
28004;BME280;15330;51.234;6.754;2022-07-01T01:12:16;101110.56;;;15.88;75.65
28004;BME280;15330;51.234;6.754;2022-07-01T01:14:47;101115.34;;;16.07;75.06
28004;BME280;15330;51.234;6.754;2022-07-01T01:17:14;101106.66;;;16.12;75.11
28004;BME280;15330;51.234;6.754;2022-07-01T01:19:41;101116.38;;;16.06;74.85
28004;BME280;15330;51.234;6.754;2022-07-01T01:22:07;101131.91;;;16.04;75.37
28004;BME280;15330;51.234;6.754;2022-07-01T01:24:32;101138.22;;;16.11;75.00
28004;BME280;15330;51.234;6.754;2022-07-01T01:26:57;101136.91;;;15.86;75.38
28004;BME280;15330;51.234;6.754;2022-07-01T01:29:23;101137.81;;;15.57;76.05
28004;BME280;15330;51.234;6.754;2022-07-01T01:31:48;101144.09;;;15.64;76.21
28004;BME280;15330;51.234;6.754;2022-07-01T01:34:13;101147.25;;;15.53;76.59
28004;BME280;15330;51.234;6.754;2022-07-01T01:36:39;101141.41;;;15.64;76.50
28004;BME280;15330;51.234;6.754;2022-07-01T01:39:05;101137.59;;;15.59;77.02
28004;BME280;15330;51.234;6.754;2022-07-01T01:41:36;101140.75;;;15.62;76.93
28004;BME280;15330;51.234;6.754;2022-07-01T01:44:01;101152.63;;;15.38;77.80
28004;BME280;15330;51.234;6.754;2022-07-01T01:46:26;101160.16;;;15.28;78.29
28004;BME280;15330;51.234;6.754;2022-07-01T01:48:54;101150.59;;;15.40;77.68
28004;BME280;15330;51.234;6.754;2022-07-01T01:51:19;101147.34;;;15.60;77.26
28004;BME280;15330;51.234;6.754;2022-07-01T01:53:45;101139.25;;;15.60;77.35
28004;BME280;15330;51.234;6.754;2022-07-01T01:56:10;101152.09;;;15.58;77.37
28004;BME280;15330;51.234;6.754;2022-07-01T01:58:36;101153.94;;;15.42;77.46
28004;BME280;15330;51.234;6.754;2022-07-01T02:01:01;101148.38;;;15.59;77.01
28004;BME280;15330;51.234;6.754;2022-07-01T02:03:27;101153.09;;;15.42;77.06
28004;BME280;15330;51.234;6.754;2022-07-01T02:05:53;101149.00;;;15.31;77.85
28004;BME280;15330;51.234;6.754;2022-07-01T02:08:19;101142.59;;;15.32;77.98
28004;BME280;15330;51.234;6.754;2022-07-01T02:10:44;101144.94;;;15.35;78.03
28004;BME280;15330;51.234;6.754;2022-07-01T02:13:10;101150.03;;;15.45;78.05
28004;BME280;15330;51.234;6.754;2022-07-01T02:15:35;101150.78;;;15.39;77.61
28004;BME280;15330;51.234;6.754;2022-07-01T02:18:01;101159.22;;;15.21;77.81
28004;BME280;15330;51.234;6.754;2022-07-01T02:20:26;101162.81;;;14.84;79.00
28004;BME280;15330;51.234;6.754;2022-07-01T02:22:51;101167.69;;;15.18;78.03
28004;BME280;15330;51.234;6.754;2022-07-01T02:25:17;101167.97;;;15.38;77.91
28004;BME280;15330;51.234;6.754;2022-07-01T02:27:43;101171.59;;;15.16;78.00
28004;BME280;15330;51.234;6.754;2022-07-01T02:30:09;101166.28;;;15.37;77.02
28004;BME280;15330;51.234;6.754;2022-07-01T02:32:34;101175.00;;;15.10;77.98
28004;BME280;15330;51.234;6.754;2022-07-01T02:34:59;101189.72;;;15.22;77.83
28004;BME280;15330;51.234;6.754;2022-07-01T02:37:25;101187.31;;;15.41;76.99
28004;BME280;15330;51.234;6.754;2022-07-01T02:39:50;101180.06;;;15.42;77.52
28004;BME280;15330;51.234;6.754;2022-07-01T02:42:15;101198.25;;;15.11;77.82
28004;BME280;15330;51.234;6.754;2022-07-01T02:44:56;101200.38;;;15.00;78.05
28004;BME280;15330;51.234;6.754;2022-07-01T02:47:22;101196.56;;;15.10;77.59
28004;BME280;15330;51.234;6.754;2022-07-01T02:49:48;101206.66;;;14.93;77.97
28004;BME280;15330;51.234;6.754;2022-07-01T02:52:13;101203.38;;;15.20;77.90
28004;BME280;15330;51.234;6.754;2022-07-01T02:54:41;101206.91;;;15.21;77.94
28004;BME280;15330;51.234;6.754;2022-07-01T02:57:06;101211.97;;;15.01;77.94
28004;BME280;15330;51.234;6.754;2022-07-01T02:59:31;101216.66;;;15.22;77.70
28004;BME280;15330;51.234;6.754;2022-07-01T03:01:57;101236.50;;;15.06;77.24
28004;BME280;15330;51.234;6.754;2022-07-01T03:04:22;101234.78;;;15.13;78.20
28004;BME280;15330;51.234;6.754;2022-07-01T03:06:48;101231.50;;;15.18;77.73
28004;BME280;15330;51.234;6.754;2022-07-01T03:09:13;101230.22;;;15.28;77.46
28004;BME280;15330;51.234;6.754;2022-07-01T03:11:38;101232.03;;;15.51;76.58
28004;BME280;15330;51.234;6.754;2022-07-01T03:14:03;101229.59;;;15.41;76.76
28004;BME280;15330;51.234;6.754;2022-07-01T03:16:29;101231.38;;;15.34;77.27
28004;BME280;15330;51.234;6.754;2022-07-01T03:18:54;101234.28;;;14.95;78.24
28004;BME280;15330;51.234;6.754;2022-07-01T03:21:20;101243.22;;;15.10;78.63
28004;BME280;15330;51.234;6.754;2022-07-01T03:23:45;101249.13;;;15.05;78.46
28004;BME280;15330;51.234;6.754;2022-07-01T03:26:10;101255.19;;;15.07;77.86
28004;BME280;15330;51.234;6.754;2022-07-01T03:28:36;101254.66;;;15.12;78.06
28004;BME280;15330;51.234;6.754;2022-07-01T03:31:01;101244.47;;;14.99;78.33
28004;BME280;15330;51.234;6.754;2022-07-01T03:33:27;101254.44;;;15.36;77.59
28004;BME280;15330;51.234;6.754;2022-07-01T03:35:53;101244.84;;;15.34;77.10
28004;BME280;15330;51.234;6.754;2022-07-01T03:38:18;101242.81;;;15.51;77.05
28004;BME280;15330;51.234;6.754;2022-07-01T03:40:44;101233.53;;;15.53;76.74
28004;BME280;15330;51.234;6.754;2022-07-01T03:43:09;101233.03;;;15.50;76.92
28004;BME280;15330;51.234;6.754;2022-07-01T03:45:35;101243.84;;;15.35;77.70
28004;BME280;15330;51.234;6.754;2022-07-01T03:48:01;101248.00;;;15.23;78.02
28004;BME280;15330;51.234;6.754;2022-07-01T03:50:28;101249.69;;;15.38;76.84
28004;BME280;15330;51.234;6.754;2022-07-01T03:52:53;101243.25;;;15.39;76.25
28004;BME280;15330;51.234;6.754;2022-07-01T03:55:38;101252.72;;;15.21;77.12
28004;BME280;15330;51.234;6.754;2022-07-01T03:58:03;101249.41;;;15.33;76.56
28004;BME280;15330;51.234;6.754;2022-07-01T04:00:33;101254.66;;;15.27;76.51
28004;BME280;15330;51.234;6.754;2022-07-01T04:03:00;101248.81;;;15.23;76.99
28004;BME280;15330;51.234;6.754;2022-07-01T04:05:25;101251.78;;;15.28;76.29
28004;BME280;15330;51.234;6.754;2022-07-01T04:07:50;101251.88;;;15.20;76.91
28004;BME280;15330;51.234;6.754;2022-07-01T04:10:16;101241.31;;;15.33;76.42
28004;BME280;15330;51.234;6.754;2022-07-01T04:12:41;101242.41;;;15.24;75.93
28004;BME280;15330;51.234;6.754;2022-07-01T04:15:08;101236.72;;;15.19;76.25
28004;BME280;15330;51.234;6.754;2022-07-01T04:17:34;101222.13;;;15.66;75.43
28004;BME280;15330;51.234;6.754;2022-07-01T04:19:59;101242.03;;;15.65;74.72
28004;BME280;15330;51.234;6.754;2022-07-01T04:22:24;101230.28;;;15.58;74.55
28004;BME280;15330;51.234;6.754;2022-07-01T04:25:02;101241.09;;;15.72;74.68
28004;BME280;15330;51.234;6.754;2022-07-01T04:27:29;101250.84;;;15.73;75.44
28004;BME280;15330;51.234;6.754;2022-07-01T04:29:55;101249.22;;;15.35;75.53
28004;BME280;15330;51.234;6.754;2022-07-01T04:32:20;101254.31;;;15.67;75.21
28004;BME280;15330;51.234;6.754;2022-07-01T04:34:46;101263.47;;;15.43;76.03
28004;BME280;15330;51.234;6.754;2022-07-01T04:37:11;101253.75;;;15.57;75.59
28004;BME280;15330;51.234;6.754;2022-07-01T04:39:37;101260.41;;;15.09;76.82
28004;BME280;15330;51.234;6.754;2022-07-01T04:42:03;101254.41;;;15.22;75.91
28004;BME280;15330;51.234;6.754;2022-07-01T04:44:31;101251.13;;;15.26;75.64
28004;BME280;15330;51.234;6.754;2022-07-01T04:46:58;101238.72;;;15.40;75.31
28004;BME280;15330;51.234;6.754;2022-07-01T04:49:23;101240.44;;;15.56;74.72
28004;BME280;15330;51.234;6.754;2022-07-01T04:51:49;101232.59;;;15.46;74.11
28004;BME280;15330;51.234;6.754;2022-07-01T04:54:15;101232.44;;;15.77;74.16
28004;BME280;15330;51.234;6.754;2022-07-01T04:56:40;101231.13;;;15.73;73.77
28004;BME280;15330;51.234;6.754;2022-07-01T04:59:06;101237.44;;;15.36;74.80
28004;BME280;15330;51.234;6.754;2022-07-01T05:01:31;101237.38;;;15.88;74.42
28004;BME280;15330;51.234;6.754;2022-07-01T05:03:57;101230.50;;;15.86;73.25
28004;BME280;15330;51.234;6.754;2022-07-01T05:06:23;101230.00;;;15.53;74.28
28004;BME280;15330;51.234;6.754;2022-07-01T05:08:49;101232.91;;;15.81;73.76
28004;BME280;15330;51.234;6.754;2022-07-01T05:11:14;101237.50;;;15.42;74.73
28004;BME280;15330;51.234;6.754;2022-07-01T05:13:40;101227.28;;;15.38;75.29
28004;BME280;15330;51.234;6.754;2022-07-01T05:16:05;101224.91;;;15.58;74.32
28004;BME280;15330;51.234;6.754;2022-07-01T05:18:31;101220.13;;;15.45;74.75
28004;BME280;15330;51.234;6.754;2022-07-01T05:21:16;101213.63;;;15.39;74.89
28004;BME280;15330;51.234;6.754;2022-07-01T05:24:00;101214.44;;;15.25;75.21
28004;BME280;15330;51.234;6.754;2022-07-01T05:26:26;101210.78;;;15.18;75.38
28004;BME280;15330;51.234;6.754;2022-07-01T05:28:52;101215.84;;;15.51;74.25
28004;BME280;15330;51.234;6.754;2022-07-01T05:31:18;101225.03;;;15.27;74.81
28004;BME280;15330;51.234;6.754;2022-07-01T05:33:44;101217.75;;;15.65;74.20
28004;BME280;15330;51.234;6.754;2022-07-01T05:36:10;101234.88;;;15.57;74.71
28004;BME280;15330;51.234;6.754;2022-07-01T05:38:35;101234.59;;;15.67;74.17
28004;BME280;15330;51.234;6.754;2022-07-01T05:41:01;101233.28;;;15.77;73.20
28004;BME280;15330;51.234;6.754;2022-07-01T05:43:26;101231.53;;;15.55;74.19
28004;BME280;15330;51.234;6.754;2022-07-01T05:45:52;101233.25;;;16.07;73.58
28004;BME280;15330;51.234;6.754;2022-07-01T05:48:17;101240.06;;;15.88;73.76
28004;BME280;15330;51.234;6.754;2022-07-01T05:50:42;101262.44;;;15.45;74.80
28004;BME280;15330;51.234;6.754;2022-07-01T05:53:10;101255.22;;;15.60;74.58
28004;BME280;15330;51.234;6.754;2022-07-01T05:55:36;101248.97;;;15.59;74.68
28004;BME280;15330;51.234;6.754;2022-07-01T05:58:02;101256.06;;;15.60;74.40
28004;BME280;15330;51.234;6.754;2022-07-01T06:00:28;101264.72;;;15.70;74.50
28004;BME280;15330;51.234;6.754;2022-07-01T06:02:53;101266.38;;;15.71;74.36
28004;BME280;15330;51.234;6.754;2022-07-01T06:05:19;101263.16;;;15.38;75.10
28004;BME280;15330;51.234;6.754;2022-07-01T06:07:44;101263.69;;;15.57;74.91
28004;BME280;15330;51.234;6.754;2022-07-01T06:10:10;101252.81;;;15.94;73.90
28004;BME280;15330;51.234;6.754;2022-07-01T06:12:36;101246.81;;;15.99;73.63
28004;BME280;15330;51.234;6.754;2022-07-01T06:15:03;101253.47;;;15.96;73.43
28004;BME280;15330;51.234;6.754;2022-07-01T06:17:28;101249.81;;;16.19;73.13
28004;BME280;15330;51.234;6.754;2022-07-01T06:19:54;101245.78;;;16.29;72.58
28004;BME280;15330;51.234;6.754;2022-07-01T06:22:19;101243.66;;;16.46;72.34
28004;BME280;15330;51.234;6.754;2022-07-01T06:24:46;101248.47;;;16.29;71.63
28004;BME280;15330;51.234;6.754;2022-07-01T06:27:12;101253.28;;;16.34;72.33
28004;BME280;15330;51.234;6.754;2022-07-01T06:29:37;101264.69;;;16.29;71.90
28004;BME280;15330;51.234;6.754;2022-07-01T06:32:04;101276.69;;;16.27;72.71
28004;BME280;15330;51.234;6.754;2022-07-01T06:34:30;101284.41;;;16.15;72.51
28004;BME280;15330;51.234;6.754;2022-07-01T06:36:55;101281.41;;;16.39;71.98
28004;BME280;15330;51.234;6.754;2022-07-01T06:39:21;101291.56;;;16.23;71.77
28004;BME280;15330;51.234;6.754;2022-07-01T06:41:46;101282.31;;;16.46;71.48
28004;BME280;15330;51.234;6.754;2022-07-01T06:44:12;101277.94;;;16.45;71.62
28004;BME280;15330;51.234;6.754;2022-07-01T06:46:37;101279.38;;;16.27;71.68
28004;BME280;15330;51.234;6.754;2022-07-01T06:49:03;101291.13;;;16.19;71.87
28004;BME280;15330;51.234;6.754;2022-07-01T06:51:29;101302.53;;;16.36;70.89
28004;BME280;15330;51.234;6.754;2022-07-01T06:53:54;101302.50;;;16.65;70.80
28004;BME280;15330;51.234;6.754;2022-07-01T06:56:20;101304.63;;;16.55;70.55
28004;BME280;15330;51.234;6.754;2022-07-01T06:58:45;101319.22;;;16.25;71.81
28004;BME280;15330;51.234;6.754;2022-07-01T07:01:11;101320.13;;;16.32;71.54
28004;BME280;15330;51.234;6.754;2022-07-01T07:03:37;101321.25;;;16.37;72.03
28004;BME280;15330;51.234;6.754;2022-07-01T07:06:03;101318.25;;;16.47;71.56
28004;BME280;15330;51.234;6.754;2022-07-01T07:08:30;101307.97;;;16.93;70.04
28004;BME280;15330;51.234;6.754;2022-07-01T07:10:55;101322.72;;;16.69;69.83
28004;BME280;15330;51.234;6.754;2022-07-01T07:13:21;101322.63;;;16.63;69.95
28004;BME280;15330;51.234;6.754;2022-07-01T07:15:47;101331.88;;;16.90;69.00
28004;BME280;15330;51.234;6.754;2022-07-01T07:18:12;101335.47;;;16.97;68.28
28004;BME280;15330;51.234;6.754;2022-07-01T07:20:38;101332.88;;;16.67;68.73
28004;BME280;15330;51.234;6.754;2022-07-01T07:23:04;101316.84;;;16.66;69.38
28004;BME280;15330;51.234;6.754;2022-07-01T07:25:29;101315.00;;;17.09;68.31
28004;BME280;15330;51.234;6.754;2022-07-01T07:27:55;101312.28;;;17.30;67.15
28004;BME280;15330;51.234;6.754;2022-07-01T07:30:20;101313.28;;;17.01;67.75
28004;BME280;15330;51.234;6.754;2022-07-01T07:32:46;101324.94;;;17.02;67.82
28004;BME280;15330;51.234;6.754;2022-07-01T07:35:11;101318.59;;;17.37;66.67
28004;BME280;15330;51.234;6.754;2022-07-01T07:37:38;101310.75;;;17.21;66.79
28004;BME280;15330;51.234;6.754;2022-07-01T07:40:04;101328.41;;;17.45;65.87
28004;BME280;15330;51.234;6.754;2022-07-01T07:42:32;101343.25;;;17.06;67.58
28004;BME280;15330;51.234;6.754;2022-07-01T07:44:57;101326.28;;;17.12;67.16
28004;BME280;15330;51.234;6.754;2022-07-01T07:47:23;101328.53;;;17.09;67.66
28004;BME280;15330;51.234;6.754;2022-07-01T07:49:48;101354.50;;;17.74;66.42
28004;BME280;15330;51.234;6.754;2022-07-01T07:52:13;101351.47;;;17.83;64.49
28004;BME280;15330;51.234;6.754;2022-07-01T07:54:39;101346.94;;;18.79;63.07
28004;BME280;15330;51.234;6.754;2022-07-01T07:57:05;101348.59;;;18.74;61.79
28004;BME280;15330;51.234;6.754;2022-07-01T07:59:30;101348.72;;;19.20;62.31
28004;BME280;15330;51.234;6.754;2022-07-01T08:01:56;101350.28;;;18.81;61.62
28004;BME280;15330;51.234;6.754;2022-07-01T08:04:21;101348.50;;;18.54;62.44
28004;BME280;15330;51.234;6.754;2022-07-01T08:06:47;101359.44;;;17.98;63.28
28004;BME280;15330;51.234;6.754;2022-07-01T08:09:12;101365.06;;;17.96;63.28
28004;BME280;15330;51.234;6.754;2022-07-01T08:11:38;101368.72;;;17.61;64.88
28004;BME280;15330;51.234;6.754;2022-07-01T08:14:03;101359.50;;;17.55;65.23
28004;BME280;15330;51.234;6.754;2022-07-01T08:16:29;101370.84;;;17.44;65.98
28004;BME280;15330;51.234;6.754;2022-07-01T08:18:54;101366.09;;;17.46;65.90
28004;BME280;15330;51.234;6.754;2022-07-01T08:21:21;101369.06;;;17.73;65.68
28004;BME280;15330;51.234;6.754;2022-07-01T08:23:46;101363.84;;;17.99;64.81
28004;BME280;15330;51.234;6.754;2022-07-01T08:26:11;101367.38;;;18.68;63.24
28004;BME280;15330;51.234;6.754;2022-07-01T08:28:39;101361.28;;;19.40;61.12
28004;BME280;15330;51.234;6.754;2022-07-01T08:31:04;101360.19;;;20.14;59.99
28004;BME280;15330;51.234;6.754;2022-07-01T08:33:30;101359.63;;;19.53;59.37
28004;BME280;15330;51.234;6.754;2022-07-01T08:35:55;101364.50;;;18.08;61.50
28004;BME280;15330;51.234;6.754;2022-07-01T08:38:20;101365.72;;;18.33;61.95
28004;BME280;15330;51.234;6.754;2022-07-01T08:40:46;101366.81;;;18.11;62.63
28004;BME280;15330;51.234;6.754;2022-07-01T08:43:11;101374.84;;;18.25;62.55
28004;BME280;15330;51.234;6.754;2022-07-01T08:45:37;101382.00;;;18.05;62.33
28004;BME280;15330;51.234;6.754;2022-07-01T08:48:03;101393.53;;;18.20;62.24
28004;BME280;15330;51.234;6.754;2022-07-01T08:50:40;101393.47;;;18.48;61.39
28004;BME280;15330;51.234;6.754;2022-07-01T08:53:07;101393.25;;;18.78;60.92
28004;BME280;15330;51.234;6.754;2022-07-01T08:55:33;101390.66;;;19.17;58.69
28004;BME280;15330;51.234;6.754;2022-07-01T08:58:20;101390.06;;;19.35;57.93
28004;BME280;15330;51.234;6.754;2022-07-01T09:00:46;101394.63;;;19.34;57.41
28004;BME280;15330;51.234;6.754;2022-07-01T09:03:11;101388.16;;;19.42;56.89
28004;BME280;15330;51.234;6.754;2022-07-01T09:05:37;101402.00;;;19.80;57.20
28004;BME280;15330;51.234;6.754;2022-07-01T09:08:05;101395.72;;;19.73;57.45
28004;BME280;15330;51.234;6.754;2022-07-01T09:10:33;101399.06;;;20.01;57.46
28004;BME280;15330;51.234;6.754;2022-07-01T09:13:08;101388.16;;;19.35;56.84
28004;BME280;15330;51.234;6.754;2022-07-01T09:15:35;101395.84;;;18.99;55.75
28004;BME280;15330;51.234;6.754;2022-07-01T09:18:11;101385.50;;;19.55;55.16
28004;BME280;15330;51.234;6.754;2022-07-01T09:20:46;101391.94;;;19.48;55.17
28004;BME280;15330;51.234;6.754;2022-07-01T09:23:17;101391.31;;;19.46;55.76
28004;BME280;15330;51.234;6.754;2022-07-01T09:25:47;101389.47;;;19.79;55.00
28004;BME280;15330;51.234;6.754;2022-07-01T09:28:19;101388.25;;;19.62;54.65
28004;BME280;15330;51.234;6.754;2022-07-01T09:30:47;101385.88;;;19.46;55.24
28004;BME280;15330;51.234;6.754;2022-07-01T09:33:16;101396.16;;;19.63;55.54
28004;BME280;15330;51.234;6.754;2022-07-01T09:35:44;101395.53;;;19.81;54.19
28004;BME280;15330;51.234;6.754;2022-07-01T09:38:11;101388.44;;;19.60;54.40
28004;BME280;15330;51.234;6.754;2022-07-01T09:40:56;101394.50;;;19.49;54.39
28004;BME280;15330;51.234;6.754;2022-07-01T09:45:59;101404.72;;;19.67;53.77
28004;BME280;15330;51.234;6.754;2022-07-01T09:48:47;101400.34;;;19.92;53.58
28004;BME280;15330;51.234;6.754;2022-07-01T09:51:13;101400.50;;;20.24;52.82
28004;BME280;15330;51.234;6.754;2022-07-01T09:53:40;101412.22;;;19.85;54.53
28004;BME280;15330;51.234;6.754;2022-07-01T09:56:06;101411.13;;;19.26;54.79
28004;BME280;15330;51.234;6.754;2022-07-01T09:58:31;101411.06;;;19.13;55.74
28004;BME280;15330;51.234;6.754;2022-07-01T10:00:58;101409.53;;;19.71;54.80
28004;BME280;15330;51.234;6.754;2022-07-01T10:03:25;101409.81;;;20.61;53.02
28004;BME280;15330;51.234;6.754;2022-07-01T10:05:54;101404.09;;;19.91;53.80
28004;BME280;15330;51.234;6.754;2022-07-01T10:11:17;101407.84;;;19.64;52.80
28004;BME280;15330;51.234;6.754;2022-07-01T10:13:48;101411.94;;;20.52;50.89
28004;BME280;15330;51.234;6.754;2022-07-01T10:16:13;101410.31;;;20.89;49.15
28004;BME280;15330;51.234;6.754;2022-07-01T10:18:41;101415.50;;;20.97;48.75
28004;BME280;15330;51.234;6.754;2022-07-01T10:21:06;101410.13;;;20.20;48.46
28004;BME280;15330;51.234;6.754;2022-07-01T10:23:41;101402.25;;;20.76;48.67
28004;BME280;15330;51.234;6.754;2022-07-01T10:26:07;101398.28;;;21.10;46.70
28004;BME280;15330;51.234;6.754;2022-07-01T10:31:15;101416.66;;;20.83;48.45
28004;BME280;15330;51.234;6.754;2022-07-01T10:41:35;101405.19;;;21.75;46.58
28004;BME280;15330;51.234;6.754;2022-07-01T10:44:06;101402.56;;;21.62;46.10
28004;BME280;15330;51.234;6.754;2022-07-01T10:46:47;101401.25;;;22.21;44.84
28004;BME280;15330;51.234;6.754;2022-07-01T10:49:51;101402.16;;;21.34;45.82
28004;BME280;15330;51.234;6.754;2022-07-01T10:59:42;101390.72;;;21.50;45.13
28004;BME280;15330;51.234;6.754;2022-07-01T11:02:12;101396.50;;;21.60;44.90
28004;BME280;15330;51.234;6.754;2022-07-01T11:04:39;101385.91;;;22.02;44.92
28004;BME280;15330;51.234;6.754;2022-07-01T11:07:04;101391.50;;;22.50;43.54
28004;BME280;15330;51.234;6.754;2022-07-01T11:09:30;101394.97;;;22.20;41.64
28004;BME280;15330;51.234;6.754;2022-07-01T11:11:56;101391.94;;;22.28;41.55
28004;BME280;15330;51.234;6.754;2022-07-01T11:14:22;101394.97;;;22.20;41.08
28004;BME280;15330;51.234;6.754;2022-07-01T11:16:47;101386.47;;;22.47;40.88
28004;BME280;15330;51.234;6.754;2022-07-01T11:19:17;101381.25;;;22.45;41.23
28004;BME280;15330;51.234;6.754;2022-07-01T11:21:49;101372.22;;;22.45;40.50
28004;BME280;15330;51.234;6.754;2022-07-01T11:24:16;101375.53;;;23.01;40.13
28004;BME280;15330;51.234;6.754;2022-07-01T11:26:41;101382.22;;;24.52;39.72
28004;BME280;15330;51.234;6.754;2022-07-01T11:29:12;101386.28;;;23.79;39.49
28004;BME280;15330;51.234;6.754;2022-07-01T11:31:38;101379.50;;;23.59;38.93
28004;BME280;15330;51.234;6.754;2022-07-01T11:34:04;101374.28;;;21.63;41.30
28004;BME280;15330;51.234;6.754;2022-07-01T11:36:30;101369.50;;;21.83;41.08
28004;BME280;15330;51.234;6.754;2022-07-01T11:39:14;101372.81;;;23.01;40.78
28004;BME280;15330;51.234;6.754;2022-07-01T11:41:56;101371.84;;;22.59;40.66
28004;BME280;15330;51.234;6.754;2022-07-01T11:44:54;101364.66;;;23.13;39.98
28004;BME280;15330;51.234;6.754;2022-07-01T11:47:24;101375.25;;;23.21;40.45
28004;BME280;15330;51.234;6.754;2022-07-01T11:49:50;101369.06;;;23.91;38.64
28004;BME280;15330;51.234;6.754;2022-07-01T11:52:17;101365.19;;;22.92;37.82
28004;BME280;15330;51.234;6.754;2022-07-01T11:54:52;101359.06;;;22.60;38.56
28004;BME280;15330;51.234;6.754;2022-07-01T11:57:20;101363.91;;;22.58;39.58
28004;BME280;15330;51.234;6.754;2022-07-01T11:59:48;101363.69;;;22.41;40.56
28004;BME280;15330;51.234;6.754;2022-07-01T12:02:17;101366.91;;;22.68;39.64
28004;BME280;15330;51.234;6.754;2022-07-01T12:04:44;101372.97;;;22.88;39.60
28004;BME280;15330;51.234;6.754;2022-07-01T12:07:12;101367.00;;;21.82;39.07
28004;BME280;15330;51.234;6.754;2022-07-01T12:09:38;101368.81;;;21.70;40.38
28004;BME280;15330;51.234;6.754;2022-07-01T12:12:04;101368.97;;;21.18;39.88
28004;BME280;15330;51.234;6.754;2022-07-01T12:14:32;101371.56;;;22.49;39.29
28004;BME280;15330;51.234;6.754;2022-07-01T12:17:00;101378.06;;;22.85;37.82
28004;BME280;15330;51.234;6.754;2022-07-01T12:19:46;101370.41;;;22.93;36.87
28004;BME280;15330;51.234;6.754;2022-07-01T12:22:32;101369.41;;;22.88;38.32
28004;BME280;15330;51.234;6.754;2022-07-01T12:25:13;101381.03;;;22.83;38.04
28004;BME280;15330;51.234;6.754;2022-07-01T12:27:40;101381.88;;;22.84;37.88
28004;BME280;15330;51.234;6.754;2022-07-01T12:30:10;101374.59;;;22.41;37.46
28004;BME280;15330;51.234;6.754;2022-07-01T12:32:37;101371.63;;;22.61;37.89
28004;BME280;15330;51.234;6.754;2022-07-01T12:35:07;101377.59;;;23.18;37.58
28004;BME280;15330;51.234;6.754;2022-07-01T12:37:52;101378.00;;;22.73;38.18
28004;BME280;15330;51.234;6.754;2022-07-01T12:40:25;101375.94;;;23.17;38.84
28004;BME280;15330;51.234;6.754;2022-07-01T12:42:54;101384.78;;;22.64;38.02
28004;BME280;15330;51.234;6.754;2022-07-01T12:45:24;101376.84;;;22.08;38.31
28004;BME280;15330;51.234;6.754;2022-07-01T12:47:59;101383.34;;;22.07;38.83
28004;BME280;15330;51.234;6.754;2022-07-01T12:50:29;101381.94;;;21.97;38.15
28004;BME280;15330;51.234;6.754;2022-07-01T12:55:27;101376.78;;;22.14;38.14
28004;BME280;15330;51.234;6.754;2022-07-01T12:57:55;101379.31;;;22.52;38.42
28004;BME280;15330;51.234;6.754;2022-07-01T13:00:22;101377.31;;;22.78;38.50
28004;BME280;15330;51.234;6.754;2022-07-01T13:02:56;101373.56;;;23.20;37.96
28004;BME280;15330;51.234;6.754;2022-07-01T13:05:22;101375.69;;;23.60;38.14
28004;BME280;15330;51.234;6.754;2022-07-01T13:07:48;101375.50;;;22.72;37.56
28004;BME280;15330;51.234;6.754;2022-07-01T13:10:14;101376.63;;;21.84;38.30
28004;BME280;15330;51.234;6.754;2022-07-01T13:12:40;101384.81;;;22.09;38.83
28004;BME280;15330;51.234;6.754;2022-07-01T13:15:06;101392.09;;;21.90;39.79
28004;BME280;15330;51.234;6.754;2022-07-01T13:17:32;101379.28;;;22.16;38.63